99NY weather

Hibbard's Airport
Wilson, New York, United States

Public forecast

Using degrees Fahrenheit for public forecast. Weather courtesy of forecast.io.

METAR (pilot weather report)

Closest report is Niagara Falls International Airport, 10.3 nm (19.0 km) SW. Retrieved 2019/06/24 15:53 UTC (46 minutes ago):

KIAG 241553Z 11004KT 10SM OVC100 23/16 A2979 RMK AO2 RAB1457E09 SLP086 P0000 T02280156

TAF (pilot weather forecast)

Closest forecast is Niagara Falls International Airport, 10.3 nm (19.0 km) SW. Retrieved 2019/06/24 12:22 UTC (4 hours ago):

TAF KIAG 241120Z 2412/2512 VRB04KT P6SM FEW250 FM241800 16008KT P6SM BKN090 FM242200 14007KT P6SM BKN050 FM250300 15005KT 4SM SHRA BR OVC040 FM250600 19005KT 6SM -SHRA BR OVC025